Weather at Ione Municipal Airport

Public forecast

Using degrees Fahrenheit for public forecast. Weather courtesy of forecast.io.

Closest aviation weather report (METAR) to Ione Municipal Airport

Closest report is Castlegar/West Kootenay Regional Airport, 36.4 nm (67.3 km) NNW. Retrieved 2021/01/21 22:00 UTC (58 minutes ago):

CYCG 212200Z 35011G16KT 15SM FEW034 FEW120 M00/M07 A3015 RMK SC1AC1 SC TR AC TR SLP232

Closest aviation forecast (TAF) to Ione Municipal Airport

Closest forecast is Castlegar/West Kootenay Regional Airport, 36.4 nm (67.3 km) NNW. Retrieved 2021/01/21 19:00 UTC (4 hours ago):

TAF CYCG 211838Z 2119/2201 34010KT P6SM SCT020 BKN040 TEMPO 2119/2121 BKN020 FM212100 35008KT P6SM SCT030 RMK NXT FCST WILL BE ISSUED AT 221545Z